WetterOnline ( https://www.wetteronline.de )

Wetter aktuell Salzgitter

Aktuelles Wetter: Braunschweig/Flughafen (88m)

6-stündlich | Neueste Meldungen
Ortszeit Temperatur Wetter
Fr, 22.10. 2:00 6.3° C wolkenlos
Do, 21.10. 20:00 7.7° C fast wolkenlos
Do, 21.10. 14:00 11.8° C bewölkt
Do, 21.10. 8:00 14.9° C wolkig
Do, 21.10. 2:00 16.5° C wolkig
Mi, 20.10. 20:00 16.8° C bewölkt
Mi, 20.10. 14:00 18.0° C wolkig
Mi, 20.10. 8:00 15.0° C wolkenlos
Ortszeit Temperatur Wetter
Fr, 22.10. 6:20 6° C -
Fr, 22.10. 6:00 6.2° C wolkenlos
Fr, 22.10. 5:50 6.2° C wolkenlos
Fr, 22.10. 5:40 6.0° C wolkenlos
Fr, 22.10. 5:30 6.1° C leicht bewölkt
Fr, 22.10. 5:20 6.1° C leicht bewölkt
Fr, 22.10. 5:00 6.0° C wolkenlos
Fr, 22.10. 4:30 6.1° C fast wolkenlos
Fr, 22.10. 4:00 6.2° C bewölkt
Fr, 22.10. 3:30 6.3° C wolkig
Fr, 22.10. 3:00 6.0° C wolkenlos
Ortszeit Relative Feuchte Sichtweite
Fr, 22.10. 2:00 79% 40 km
Do, 21.10. 20:00 83% 65 km
Do, 21.10. 14:00 74% 50 km
Do, 21.10. 8:00 55% >70 km
Do, 21.10. 2:00 77% 55 km
Mi, 20.10. 20:00 75% 65 km
Mi, 20.10. 14:00 65% 45 km
Mi, 20.10. 8:00 70% 60 km
Ortszeit Relative Feuchte Sichtweite
Fr, 22.10. 6:20 81% >10 km
Fr, 22.10. 6:00 79% 40 km
Fr, 22.10. 5:50 79% -
Fr, 22.10. 5:40 80% -
Fr, 22.10. 5:30 80% 40 km
Fr, 22.10. 5:20 80% -
Fr, 22.10. 5:00 81% 40 km
Fr, 22.10. 4:30 81% 45 km
Fr, 22.10. 4:00 80% 45 km
Fr, 22.10. 3:30 79% 45 km
Fr, 22.10. 3:00 80% 40 km
Ortszeit Niederschlagsmenge Niederschlagsart
Fr, 22.10. 2:00 0.1 l/m2 in 6 Std. Regen
Do, 21.10. 20:00 6 l/m2 in 12 Std. -
Do, 21.10. 14:00 4 l/m2 in 6 Std. Regen
Do, 21.10. 8:00 0.4 l/m2 in 12 Std. Regen
Do, 21.10. 2:00 0.0 l/m2 in 6 Std. -
Mi, 20.10. 20:00 0.1 l/m2 in 12 Std. Regen
Mi, 20.10. 14:00 0.0 l/m2 in 6 Std. -
Mi, 20.10. 8:00 0.0 l/m2 in 12 Std. -
Ortszeit Niederschlagsmenge Niederschlagsart
Fr, 22.10. 6:20 keine Meldung -
Fr, 22.10. 6:00 0.0 l/m2 in 1 Std. -
Fr, 22.10. 5:50 keine Meldung -
Fr, 22.10. 5:40 keine Meldung -
Fr, 22.10. 5:30 0.0 l/m2 in 1 Std. -
Fr, 22.10. 5:20 keine Meldung -
Fr, 22.10. 5:00 0.0 l/m2 in 1 Std. -
Fr, 22.10. 4:30 0.0 l/m2 in 1 Std. -
Fr, 22.10. 4:00 0.0 l/m2 in 1 Std. -
Fr, 22.10. 3:30 0.0 l/m2 in 1 Std. -
Fr, 22.10. 3:00 0.0 l/m2 in 1 Std. -
Ortszeit Stärke Spitze Richtung
km/h Bft. km/h Grad Sektor
Fr, 22.10. 2:00 18 3 43 250° W
Do, 21.10. 20:00 18 3 40 250° W
Do, 21.10. 14:00 35 5 70 250° W
Do, 21.10. 8:00 25 4 79 230° SW
Do, 21.10. 2:00 17 3 50 200° S
Mi, 20.10. 20:00 22 4 54 220° SW
Mi, 20.10. 14:00 29 5 54 210° SW
Mi, 20.10. 8:00 22 4 43 220° SW
Ortszeit Stärke Spitze Richtung
km/h Bft. km/h Grad Sektor
Fr, 22.10. 6:20 26 4 - 250° W
Fr, 22.10. 6:00 20 4 35 240° SW
Fr, 22.10. 5:50 20 4 - 240° SW
Fr, 22.10. 5:40 22 4 - 240° SW
Fr, 22.10. 5:30 22 4 32 240° SW
Fr, 22.10. 5:20 22 4 - 240° SW
Fr, 22.10. 5:00 22 4 40 240° SW
Fr, 22.10. 4:30 22 4 39 240° SW
Fr, 22.10. 4:00 22 4 40 240° SW
Fr, 22.10. 3:30 22 4 40 240° SW
Fr, 22.10. 3:00 18 3 36 240° SW
Ortszeit Untergrenze Bedeckung Gattung
total tief tief mittel hoch
Fr, 22.10. 2:00 - 0/8 0/8 - - -
Do, 21.10. 20:00 3900 m 1/8 1/8 - - -
Do, 21.10. 14:00 240 m 7/8 7/8 - - -
Do, 21.10. 8:00 1500 m 6/8 7/8 - - -
Do, 21.10. 2:00 2100 m 8/8 1/8 - - -
Mi, 20.10. 20:00 1200 m 8/8 6/8 - - -
Mi, 20.10. 14:00 2700 m 8/8 2/8 - - -
Mi, 20.10. 8:00 - 0/8 0/8 - - -
Ortszeit Bedeckungsgrad in Achtel und Wolkenuntergrenze
Fr, 22.10. 6:20 -
Fr, 22.10. 6:00 keine Wolken
Fr, 22.10. 5:50 keine Wolken
Fr, 22.10. 5:40 keine Wolken
Fr, 22.10. 5:30 1(2100m) 3(4800m)
Fr, 22.10. 5:20 1(2100m) 3(4800m) 3(5700m)
Fr, 22.10. 5:00 1(5700m)
Fr, 22.10. 4:30 1(6600m)
Fr, 22.10. 4:00 4(5400m) 7(6000m)
Fr, 22.10. 3:30 5(5400m) 6(7800m) 5(7800m)
Fr, 22.10. 3:00 1(7800m)
Ortszeit Luftdruck NN (hPa) Tendenz (hPa in 3 Std.)
Fr, 22.10. 2:00 1010 + 2,0
Do, 21.10. 20:00 1005 + 3,7
Do, 21.10. 14:00 998 + 7,1
Do, 21.10. 8:00 988 - 2,1
Do, 21.10. 2:00 995 - 3,8
Mi, 20.10. 20:00 1001 - 1,5
Mi, 20.10. 14:00 1003 - 3,2
Mi, 20.10. 8:00 1008 - 2,0
Ortszeit Luftdruck NN (hPa) Tendenz (hPa in 3 Std.)
Fr, 22.10. 6:20 1009 keine Meldung
Fr, 22.10. 6:00 1010 - 0,4
Fr, 22.10. 5:50 1010 keine Meldung
Fr, 22.10. 5:40 1010 keine Meldung
Fr, 22.10. 5:30 1010 - 0,2
Fr, 22.10. 5:20 1010 keine Meldung
Fr, 22.10. 5:00 1010 + 0,3
Fr, 22.10. 4:30 1011 + 0,6
Fr, 22.10. 4:00 1011 + 1,2
Fr, 22.10. 3:30 1011 + 1,2
Fr, 22.10. 3:00 1011 + 1,5
Ortszeit Schneehöhe (cm)
Fr, 22.10. 2:00 0
Do, 21.10. 20:00 0
Do, 21.10. 14:00 0
Do, 21.10. 8:00 0
Do, 21.10. 2:00 0
Mi, 20.10. 20:00 0
Mi, 20.10. 14:00 0
Mi, 20.10. 8:00 0
Ortszeit Schneehöhe (cm)
Fr, 22.10. 6:20 -
Fr, 22.10. 6:00 0
Fr, 22.10. 5:50 0
Fr, 22.10. 5:40 0
Fr, 22.10. 5:30 0
Fr, 22.10. 5:20 0
Fr, 22.10. 5:00 0
Fr, 22.10. 4:30 0
Fr, 22.10. 4:00 0
Fr, 22.10. 3:30 0
Fr, 22.10. 3:00 0
Link zu dieser Seite / Seite empfehlen

Das Wetter in ...